Fengning — 9V2173 — position and weather

sailwx.info

Track history (hours):
 
Tides and Currents Weather Stations Pressure Air Temp Water Temp Dewpoint Dewpoint Depression Visibility Wind Speed Wind Dir Waves Ship Positions

Fengning

Last reported at 2018-Feb-12 11:38 UTC. Time now 2018-Feb-20 19:24 UTC.
Position N 48°31' W 126°27'.
Warning: this ship's position is 8 days out of date.

Length 180 m; draft 10.8 m.

Type: Cargo ship. MMSI: 565831000.

Date/timePositionNaut miles runAvg speedWind from/ knotsBaromVisibWave heightAir tempDewpointWater temp
2018-Feb-12 11:38N 48°31' W 126°27'211.1
2018-Feb-12 11:27N 48°31' W 126°24'611.2
2018-Feb-12 10:53N 48°31' W 126°15'511.3
2018-Feb-12 10:29N 48°31' W 126°08'511.3
2018-Feb-12 10:00N 48°31' W 125°60'611.3
2018-Feb-12 09:30N 48°31' W 125°51'611.4
2018-Feb-12 09:00N 48°31' W 125°43'611.3
2018-Feb-12 08:28N 48°31' W 125°33'511.2
2018-Feb-12 08:00N 48°31' W 125°26'611.2
2018-Feb-12 07:30N 48°31' W 125°17'611.4
2018-Feb-12 06:58N 48°31' W 125°08'511.6
2018-Feb-12 06:30N 48°31' W 124°60'611.9
2018-Feb-12 06:01N 48°31' W 124°51'612.0
2018-Feb-12 05:30N 48°30' W 124°42'612.6
2018-Feb-12 05:00N 48°28' W 124°33'612.8
2018-Feb-12 04:31N 48°25' W 124°24'713.2
2018-Feb-12 04:00N 48°23' W 124°15'713.3
2018-Feb-12 03:30N 48°20' W 124°06'713.6
2018-Feb-12 03:00N 48°18' W 123°56'22 1.8
2018-Feb-11 14:49N 48°08' W 123°27'0 0.0
2018-Feb-11 14:13N 48°08' W 123°27'0 0.0
2018-Feb-11 13:37N 48°08' W 123°27'0 0.0
2018-Feb-11 13:13N 48°08' W 123°27'0 0.0
2018-Feb-11 12:49N 48°08' W 123°27'0 0.0
2018-Feb-11 12:25N 48°08' W 123°27'0 0.0
2018-Feb-11 11:49N 48°08' W 123°27'0 0.0
2018-Feb-11 11:25N 48°08' W 123°27'0 0.0
2018-Feb-11 10:55N 48°08' W 123°27'0 0.0
2018-Feb-11 08:25N 48°08' W 123°27'  
2018-Feb-05 13:50N 48°08' W 123°27'0 0.0
2018-Feb-05 11:26N 48°08' W 123°27'  
2018-Feb-02 21:34N 48°08' W 123°26'1 4.2
2018-Feb-02 21:15N 48°08' W 123°24'25 8.0
2018-Feb-02 18:04N 48°15' W 124°01'312.2
2018-Feb-02 17:50N 48°16' W 124°05'412.0
2018-Feb-02 17:30N 48°18' W 124°10'612.1
2018-Feb-02 17:00N 48°21' W 124°18'611.6
2018-Feb-02 16:30N 48°23' W 124°26'1111.3
2018-Feb-02 15:30N 48°28' W 124°41'1212.1
2018-Feb-02 14:30N 48°29' W 124°59'712.9
2018-Feb-02 14:00N 48°29' W 125°09'713.2
2018-Feb-02 13:30N 48°29' W 125°19'612.8
2018-Feb-02 13:00N 48°29' W 125°29'613.0
2018-Feb-02 12:30N 48°29' W 125°39'713.2
2018-Feb-02 12:00N 48°29' W 125°48'  
Track history (hours):
 
Tides and Currents Weather Stations Pressure Air Temp Water Temp Dewpoint Dewpoint Depression Visibility Wind Speed Wind Dir Waves Ship Positions

Fengning

Last reported at 2018-Feb-12 11:38 UTC. Time now 2018-Feb-20 19:24 UTC.
Position N 48°31' W 126°27'.
Warning: this ship's position is 8 days out of date.

Length 180 m; draft 10.8 m.

Type: Cargo ship. MMSI: 565831000.

Date/timePositionNaut miles runAvg speedWind from/ knotsBaromVisibWave heightAir tempDewpointWater temp
2018-Feb-12 11:38N 48°31' W 126°27'211.1
2018-Feb-12 11:27N 48°31' W 126°24'611.2
2018-Feb-12 10:53N 48°31' W 126°15'511.3
2018-Feb-12 10:29N 48°31' W 126°08'511.3
2018-Feb-12 10:00N 48°31' W 125°60'611.3
2018-Feb-12 09:30N 48°31' W 125°51'611.4
2018-Feb-12 09:00N 48°31' W 125°43'611.3
2018-Feb-12 08:28N 48°31' W 125°33'511.2
2018-Feb-12 08:00N 48°31' W 125°26'611.2
2018-Feb-12 07:30N 48°31' W 125°17'611.4
2018-Feb-12 06:58N 48°31' W 125°08'511.6
2018-Feb-12 06:30N 48°31' W 124°60'611.9
2018-Feb-12 06:01N 48°31' W 124°51'612.0
2018-Feb-12 05:30N 48°30' W 124°42'612.6
2018-Feb-12 05:00N 48°28' W 124°33'612.8
2018-Feb-12 04:31N 48°25' W 124°24'713.2
2018-Feb-12 04:00N 48°23' W 124°15'713.3
2018-Feb-12 03:30N 48°20' W 124°06'713.6
2018-Feb-12 03:00N 48°18' W 123°56'22 1.8
2018-Feb-11 14:49N 48°08' W 123°27'0 0.0
2018-Feb-11 14:13N 48°08' W 123°27'0 0.0
2018-Feb-11 13:37N 48°08' W 123°27'0 0.0
2018-Feb-11 13:13N 48°08' W 123°27'0 0.0
2018-Feb-11 12:49N 48°08' W 123°27'0 0.0
2018-Feb-11 12:25N 48°08' W 123°27'0 0.0
2018-Feb-11 11:49N 48°08' W 123°27'0 0.0
2018-Feb-11 11:25N 48°08' W 123°27'0 0.0
2018-Feb-11 10:55N 48°08' W 123°27'0 0.0
2018-Feb-11 08:25N 48°08' W 123°27'  
2018-Feb-05 13:50N 48°08' W 123°27'0 0.0
2018-Feb-05 11:26N 48°08' W 123°27'  
2018-Feb-02 21:34N 48°08' W 123°26'1 4.2
2018-Feb-02 21:15N 48°08' W 123°24'25 8.0
2018-Feb-02 18:04N 48°15' W 124°01'312.2
2018-Feb-02 17:50N 48°16' W 124°05'412.0
2018-Feb-02 17:30N 48°18' W 124°10'612.1
2018-Feb-02 17:00N 48°21' W 124°18'611.6
2018-Feb-02 16:30N 48°23' W 124°26'1111.3
2018-Feb-02 15:30N 48°28' W 124°41'1212.1
2018-Feb-02 14:30N 48°29' W 124°59'712.9
2018-Feb-02 14:00N 48°29' W 125°09'713.2
2018-Feb-02 13:30N 48°29' W 125°19'612.8
2018-Feb-02 13:00N 48°29' W 125°29'613.0
2018-Feb-02 12:30N 48°29' W 125°39'713.2
2018-Feb-02 12:00N 48°29' W 125°48'  

Dump ship's entire track history